Time;durP1;ratioP1;P1;durP2;ratioP2;P2;SDS_P1;SDS_P2;PMS_P1;PMS_P2;Temp;Humidity;BMP_temperature;BMP_pressure;BME280_temperature;BME280_humidity;BME280_pressure;Samples;Min_cycle;Max_cycle;Signal;HPM_P1;HPM_P2
2021/07/05 04:32:56;;;;;;;1.00;1.00;;;17.20;99.90;;;;;;5083532;23;20593;-73
2021/07/05 04:35:23;;;;;;;3.23;1.10;;;17.20;99.90;;;;;;4987756;28;20981;-75
2021/07/05 04:37:51;;;;;;;1.30;1.00;;;17.10;99.90;;;;;;4992793;28;20474;-78
2021/07/05 04:40:20;;;;;;;1.97;1.00;;;17.10;99.90;;;;;;4992633;28;20441;-79
2021/07/05 04:42:47;;;;;;;1.20;1.20;;;17.20;99.90;;;;;;4993350;28;20538;-78
2021/07/05 04:45:14;;;;;;;1.30;1.20;;;17.20;99.90;;;;;;4993866;28;20438;-79
2021/07/05 04:47:41;;;;;;;1.50;0.93;;;17.20;99.90;;;;;;4993459;28;20442;-78
2021/07/05 04:50:09;;;;;;;1.33;1.23;;;17.30;99.90;;;;;;4975445;28;20427;-79
2021/07/05 04:52:35;;;;;;;0.90;0.90;;;17.30;99.90;;;;;;4992392;28;20450;-76
2021/07/05 04:55:01;;;;;;;4.17;1.30;;;17.40;99.90;;;;;;4994159;28;20473;-78
2021/07/05 04:57:28;;;;;;;1.80;1.70;;;17.50;99.90;;;;;;4993387;28;20203;-78
2021/07/05 04:59:54;;;;;;;0.93;0.93;;;17.50;99.90;;;;;;4993522;28;20426;-79
2021/07/05 05:02:22;;;;;;;1.10;1.10;;;17.60;99.90;;;;;;4992642;28;20439;-75
2021/07/05 05:04:48;;;;;;;2.43;1.30;;;17.70;99.90;;;;;;4992757;28;20652;-75
2021/07/05 05:07:14;;;;;;;0.97;0.97;;;17.70;99.90;;;;;;4991522;28;20438;-75
2021/07/05 05:09:39;;;;;;;3.90;1.23;;;17.80;99.90;;;;;;4990887;28;20427;-75
2021/07/05 05:12:05;;;;;;;3.57;1.30;;;17.90;99.90;;;;;;4991915;28;20234;-75
2021/07/05 05:14:31;;;;;;;1.10;1.00;;;17.90;99.90;;;;;;4991874;28;20194;-75
2021/07/05 05:16:56;;;;;;;1.63;0.80;;;17.90;99.90;;;;;;4991925;28;20176;-75
2021/07/05 05:19:22;;;;;;;2.67;0.97;;;18.00;99.90;;;;;;4992197;28;20215;-75
2021/07/05 05:21:47;;;;;;;1.93;1.23;;;18.00;99.90;;;;;;4992264;28;20266;-75
2021/07/05 05:24:13;;;;;;;1.67;1.17;;;18.10;99.90;;;;;;4991166;28;20234;-75
2021/07/05 05:26:38;;;;;;;3.33;1.33;;;18.20;99.90;;;;;;4992131;28;20258;-75
2021/07/05 05:29:04;;;;;;;1.00;0.87;;;18.20;99.90;;;;;;4991860;28;20187;-75
2021/07/05 05:31:31;;;;;;;1.10;1.00;;;18.20;99.90;;;;;;4992054;28;20246;-76
2021/07/05 05:33:56;;;;;;;1.20;1.17;;;18.30;99.90;;;;;;4991549;28;20853;-75
2021/07/05 05:36:22;;;;;;;2.57;0.93;;;18.40;99.90;;;;;;4991794;28;20481;-76
2021/07/05 05:38:48;;;;;;;3.07;1.00;;;18.50;99.90;;;;;;4991428;28;20274;-75
2021/07/05 05:41:15;;;;;;;1.37;1.27;;;18.60;99.90;;;;;;4993163;28;20191;-74
2021/07/05 05:43:41;;;;;;;0.93;0.80;;;18.60;99.90;;;;;;4991948;28;20418;-74
2021/07/05 05:46:07;;;;;;;1.47;0.80;;;18.60;99.90;;;;;;4992288;28;20445;-74
2021/07/05 05:48:33;;;;;;;2.37;1.33;;;18.70;99.90;;;;;;4993953;28;20410;-74
2021/07/05 05:50:59;;;;;;;2.90;1.20;;;18.60;99.90;;;;;;4997874;28;20461;-74
2021/07/05 05:53:25;;;;;;;4.87;1.03;;;18.60;99.90;;;;;;4997851;28;20509;-74
2021/07/05 05:55:51;;;;;;;0.70;0.70;;;18.60;99.90;;;;;;4993798;28;20656;-74
2021/07/05 05:58:17;;;;;;;2.80;1.10;;;18.50;99.90;;;;;;4992039;28;20461;-74
2021/07/05 06:00:43;;;;;;;1.37;1.27;;;18.50;99.90;;;;;;4991284;28;20184;-73
2021/07/05 06:03:09;;;;;;;1.43;1.30;;;18.40;99.90;;;;;;4992092;28;20438;-74
2021/07/05 06:05:34;;;;;;;1.80;0.83;;;18.40;99.90;;;;;;4974292;28;20537;-74
2021/07/05 06:08:00;;;;;;;1.30;1.20;;;18.30;99.90;;;;;;4991306;28;20592;-75
2021/07/05 06:10:26;;;;;;;2.10;0.93;;;18.20;99.90;;;;;;4993264;28;20184;-73
2021/07/05 06:12:54;;;;;;;1.10;0.93;;;18.20;99.90;;;;;;4991445;28;20218;-74
2021/07/05 06:15:20;;;;;;;6.07;1.23;;;18.20;99.90;;;;;;4990702;28;20438;-74
2021/07/05 06:17:47;;;;;;;1.43;1.20;;;18.20;99.90;;;;;;4991599;28;20466;-74
2021/07/05 06:20:13;;;;;;;1.10;1.10;;;18.20;99.90;;;;;;4991916;28;20884;-74
2021/07/05 06:22:41;;;;;;;0.80;0.80;;;18.20;99.90;;;;;;4990872;28;20488;-73
2021/07/05 06:25:08;;;;;;;1.20;1.10;;;18.10;99.90;;;;;;4991760;28;20779;-74
2021/07/05 06:27:33;;;;;;;6.40;1.27;;;18.10;99.90;;;;;;4991026;28;20414;-75
2021/07/05 06:29:59;;;;;;;1.23;1.07;;;18.10;99.90;;;;;;4991591;28;20414;-75
2021/07/05 06:32:24;;;;;;;1.53;1.10;;;18.10;99.90;;;;;;4990711;28;20640;-75
2021/07/05 06:34:50;;;;;;;1.90;1.20;;;18.10;99.90;;;;;;4991424;28;20603;-74
2021/07/05 06:37:15;;;;;;;1.30;1.20;;;18.10;99.90;;;;;;4991814;28;20199;-75
2021/07/05 06:39:41;;;;;;;1.43;0.80;;;18.10;99.90;;;;;;4993195;28;20179;-72
2021/07/05 06:42:07;;;;;;;1.97;0.83;;;18.10;99.90;;;;;;4995374;28;20199;-74
2021/07/05 06:44:32;;;;;;;2.33;1.10;;;18.10;99.90;;;;;;4994819;28;20176;-74
2021/07/05 06:46:58;;;;;;;0.93;0.80;;;18.10;99.90;;;;;;4995351;28;20198;-74
2021/07/05 06:49:24;;;;;;;3.13;0.87;;;18.20;99.90;;;;;;4995057;28;20175;-74
2021/07/05 06:51:49;;;;;;;1.57;1.00;;;18.20;99.90;;;;;;4995146;28;20290;-73
2021/07/05 06:54:15;;;;;;;1.60;1.20;;;18.20;99.90;;;;;;4995160;28;20182;-73
2021/07/05 06:56:41;;;;;;;2.20;1.60;;;18.30;99.90;;;;;;4995223;28;20183;-73
2021/07/05 06:59:06;;;;;;;1.10;0.83;;;18.40;99.90;;;;;;4994824;28;20462;-74
2021/07/05 07:01:34;;;;;;;1.73;1.10;;;18.50;99.90;;;;;;4994996;28;20281;-74
2021/07/05 07:03:59;;;;;;;2.20;1.30;;;18.60;99.90;;;;;;4994675;28;20178;-74
2021/07/05 07:06:25;;;;;;;2.17;1.03;;;18.60;99.90;;;;;;4995359;28;20830;-74
2021/07/05 07:08:50;;;;;;;2.50;0.97;;;18.60;99.90;;;;;;4994723;28;20188;-74
2021/07/05 07:11:17;;;;;;;5.73;1.33;;;18.60;99.90;;;;;;4994449;28;20203;-74
2021/07/05 07:13:43;;;;;;;4.13;1.00;;;18.60;99.90;;;;;;4994339;28;20323;-74
2021/07/05 07:16:09;;;;;;;1.77;1.47;;;18.50;99.90;;;;;;4994594;28;20411;-75
2021/07/05 07:18:59;;;;;;;1.57;0.97;;;18.50;99.90;;;;;;4994448;28;20202;-74
2021/07/05 07:21:26;;;;;;;1.77;1.40;;;18.50;99.90;;;;;;4994297;28;20443;-73
2021/07/05 07:23:52;;;;;;;1.13;1.03;;;18.50;99.90;;;;;;4994476;28;20414;-74
2021/07/05 07:26:19;;;;;;;2.03;1.30;;;18.40;99.90;;;;;;4994482;28;20466;-73
2021/07/05 07:28:50;;;;;;;1.20;1.10;;;18.40;99.90;;;;;;4994568;28;20418;-73
2021/07/05 07:31:15;;;;;;;1.63;1.10;;;18.50;99.90;;;;;;4994267;28;20458;-74
2021/07/05 07:33:41;;;;;;;3.90;1.50;;;18.50;99.90;;;;;;4993879;28;20786;-74
2021/07/05 07:36:06;;;;;;;3.13;1.20;;;18.50;99.90;;;;;;4994288;28;20549;-73
2021/07/05 07:38:37;;;;;;;2.33;1.13;;;18.60;99.90;;;;;;4994020;28;20205;-73
2021/07/05 07:41:03;;;;;;;2.73;1.00;;;18.50;99.90;;;;;;4993836;28;20747;-73
2021/07/05 07:43:29;;;;;;;2.60;1.40;;;18.60;99.90;;;;;;4993375;28;20415;-73
2021/07/05 07:45:54;;;;;;;2.00;1.27;;;18.70;99.90;;;;;;4993883;28;20186;-72
2021/07/05 07:48:20;;;;;;;1.93;1.23;;;18.80;99.90;;;;;;4993663;28;20215;-75
2021/07/05 07:50:45;;;;;;;1.97;1.00;;;18.90;99.90;;;;;;4976251;28;20213;-75
2021/07/05 07:53:11;;;;;;;1.13;0.97;;;18.90;99.90;;;;;;4988349;28;20215;-74
2021/07/05 07:55:36;;;;;;;1.57;1.47;;;18.90;99.90;;;;;;4993452;28;20551;-74
2021/07/05 07:58:02;;;;;;;1.20;1.20;;;18.90;99.90;;;;;;4993828;28;20282;-75
2021/07/05 08:00:30;;;;;;;1.30;1.20;;;19.00;99.90;;;;;;4993803;28;20234;-75
2021/07/05 08:02:55;;;;;;;1.43;1.00;;;19.00;99.90;;;;;;4993536;28;20656;-75
2021/07/05 08:05:21;;;;;;;1.67;1.17;;;19.10;99.90;;;;;;4993663;28;20426;-75
2021/07/05 08:07:46;;;;;;;1.43;0.90;;;19.10;99.90;;;;;;4993650;28;20187;-76
2021/07/05 08:10:14;;;;;;;2.50;0.90;;;19.00;99.90;;;;;;4993686;28;20210;-75
2021/07/05 08:12:41;;;;;;;4.30;1.17;;;19.00;99.90;;;;;;4992035;28;20683;-76
2021/07/05 08:15:07;;;;;;;4.97;1.23;;;19.00;99.90;;;;;;4993673;28;20410;-76
2021/07/05 08:17:33;;;;;;;1.27;1.13;;;19.10;99.90;;;;;;4992625;28;20485;-75
2021/07/05 08:19:58;;;;;;;1.10;0.83;;;19.10;99.90;;;;;;4992446;28;20457;-75
2021/07/05 08:22:24;;;;;;;1.73;1.10;;;19.10;99.90;;;;;;4993201;28;20283;-74
2021/07/05 08:24:52;;;;;;;3.70;1.33;;;19.20;99.90;;;;;;4992128;28;20171;-76
2021/07/05 08:27:18;;;;;;;0.80;0.80;;;19.00;99.90;;;;;;4991604;28;20540;-76
2021/07/05 08:29:43;;;;;;;1.77;1.10;;;19.00;99.90;;;;;;4992852;28;20492;-74
2021/07/05 08:32:09;;;;;;;2.80;1.07;;;19.00;99.90;;;;;;4993010;28;20210;-75
2021/07/05 08:34:34;;;;;;;2.03;0.90;;;18.90;99.90;;;;;;4992861;28;20542;-74
2021/07/05 08:37:02;;;;;;;1.63;1.40;;;18.90;99.90;;;;;;4993259;28;20258;-77
2021/07/05 08:39:27;;;;;;;3.80;1.10;;;18.80;99.90;;;;;;4989424;28;20203;-75
2021/07/05 08:41:53;;;;;;;3.43;1.30;;;18.90;99.90;;;;;;4992418;28;20932;-74
2021/07/05 08:44:19;;;;;;;3.83;1.10;;;18.80;99.90;;;;;;4992507;28;20180;-75
2021/07/05 08:46:48;;;;;;;1.33;1.07;;;18.80;99.90;;;;;;4992580;28;20676;-75
2021/07/05 08:49:14;;;;;;;3.70;1.20;;;18.90;99.90;;;;;;4992832;28;21033;-75
2021/07/05 08:51:39;;;;;;;2.80;1.20;;;18.90;99.90;;;;;;4992361;28;20442;-76
2021/07/05 08:54:05;;;;;;;2.20;1.00;;;18.90;99.90;;;;;;4992463;28;20553;-75
2021/07/05 08:56:31;;;;;;;2.30;0.90;;;18.90;99.90;;;;;;4992290;28;20222;-75
2021/07/05 08:58:56;;;;;;;1.93;0.90;;;18.90;99.90;;;;;;4992737;28;20211;-76
2021/07/05 09:01:22;;;;;;;3.47;1.30;;;18.90;99.90;;;;;;4991707;28;20278;-76
2021/07/05 09:03:50;;;;;;;2.10;0.90;;;18.90;99.90;;;;;;4990357;28;20180;-76
2021/07/05 09:06:24;;;;;;;4.60;1.10;;;19.00;99.90;;;;;;4992403;28;20907;-76
2021/07/05 09:08:59;;;;;;;2.07;1.20;;;19.00;99.90;;;;;;4993061;28;20787;-77
2021/07/05 09:11:45;;;;;;;2.07;1.00;;;19.00;99.90;;;;;;4992557;28;20433;-76
2021/07/05 09:14:23;;;;;;;5.00;1.70;;;19.00;99.90;;;;;;4992530;28;20418;-77
2021/07/05 09:16:51;;;;;;;7.33;1.30;;;18.90;99.90;;;;;;4992129;28;20517;-76
2021/07/05 09:19:22;;;;;;;1.27;0.90;;;18.80;99.90;;;;;;4992403;28;20553;-76
2021/07/05 09:21:54;;;;;;;0.97;0.97;;;18.90;99.90;;;;;;4992316;28;20868;-77
2021/07/05 09:24:38;;;;;;;1.37;1.13;;;18.90;99.90;;;;;;4992433;28;20418;-76
2021/07/05 09:27:10;;;;;;;1.20;1.10;;;19.10;99.90;;;;;;4975223;28;20839;-77
2021/07/05 09:29:41;;;;;;;1.57;1.20;;;19.20;99.90;;;;;;4975904;28;20421;-76
2021/07/05 09:32:10;;;;;;;2.30;1.47;;;19.20;99.90;;;;;;4994162;28;20532;-76
2021/07/05 09:34:38;;;;;;;1.07;1.07;;;19.20;99.90;;;;;;4979943;28;20437;-76
2021/07/05 09:37:11;;;;;;;5.10;1.10;;;19.30;99.90;;;;;;5002817;28;20490;-72
2021/07/05 09:39:37;;;;;;;6.07;1.13;;;19.20;99.90;;;;;;4994364;28;20505;-72
2021/07/05 09:42:09;;;;;;;2.30;0.87;;;19.30;99.90;;;;;;4996780;28;20457;-74
2021/07/05 09:44:41;;;;;;;6.17;0.90;;;19.30;99.90;;;;;;4996253;28;20202;-72
2021/07/05 09:47:17;;;;;;;1.23;0.87;;;19.40;99.90;;;;;;4991893;28;20434;-72
2021/07/05 09:49:44;;;;;;;0.93;0.93;;;19.30;99.90;;;;;;4991890;28;20410;-73
2021/07/05 09:52:16;;;;;;;0.70;0.70;;;19.20;99.90;;;;;;4991795;28;20426;-73
2021/07/05 09:54:46;;;;;;;2.30;0.83;;;19.10;99.90;;;;;;4991469;28;20522;-73
2021/07/05 09:57:32;;;;;;;0.93;0.93;;;19.10;99.90;;;;;;4991785;28;20796;-71
2021/07/05 10:00:20;;;;;;;1.10;1.00;;;19.00;99.90;;;;;;4991805;28;20441;-73
2021/07/05 10:03:06;;;;;;;0.70;0.70;;;19.00;99.90;;;;;;4992076;28;20513;-75
2021/07/05 10:05:34;;;;;;;0.90;0.90;;;19.00;99.90;;;;;;4991818;28;20406;-75
2021/07/05 10:08:07;;;;;;;0.70;0.70;;;19.00;99.90;;;;;;4992174;28;20414;-75
2021/07/05 10:10:34;;;;;;;7.93;1.30;;;19.00;99.90;;;;;;4974920;28;20429;-75
2021/07/05 10:13:03;;;;;;;0.93;0.93;;;18.90;99.90;;;;;;4991863;28;20418;-77
2021/07/05 10:15:29;;;;;;;1.90;0.90;;;18.80;99.90;;;;;;4994986;28;20418;-77
2021/07/05 10:17:56;;;;;;;2.30;0.70;;;18.70;99.90;;;;;;4996138;28;20461;-78
2021/07/05 10:20:32;;;;;;;1.00;0.80;;;18.60;99.90;;;;;;4995905;28;20911;-76
2021/07/05 10:23:02;;;;;;;0.93;0.93;;;18.40;99.90;;;;;;4996164;28;20935;-77
2021/07/05 10:25:30;;;;;;;0.90;0.70;;;18.40;99.90;;;;;;4978132;28;20509;-77
2021/07/05 10:27:56;;;;;;;1.30;0.80;;;18.50;99.90;;;;;;4996006;28;20425;-77
2021/07/05 10:30:23;;;;;;;2.70;1.43;;;18.60;99.90;;;;;;4996045;28;20407;-78
2021/07/05 10:32:49;;;;;;;1.07;0.90;;;18.70;99.90;;;;;;4995681;28;20461;-78
2021/07/05 10:35:19;;;;;;;1.70;0.87;;;18.80;99.90;;;;;;4996306;28;20425;-77
2021/07/05 10:38:04;;;;;;;0.70;0.70;;;18.90;99.90;;;;;;4996858;28;20469;-78
2021/07/05 10:40:51;;;;;;;1.10;0.60;;;18.90;99.90;;;;;;4979346;28;20437;-77
2021/07/05 10:43:19;;;;;;;2.00;0.67;;;19.00;99.90;;;;;;4985868;28;20935;-77
2021/07/05 10:45:48;;;;;;;0.67;0.67;;;19.10;99.90;;;;;;4996411;28;20454;-78
2021/07/05 10:48:37;;;;;;;2.80;1.07;;;19.20;99.90;;;;;;4994915;28;20442;-77
2021/07/05 10:51:04;;;;;;;4.97;0.70;;;19.40;99.90;;;;;;4996311;28;20461;-78
2021/07/05 10:53:32;;;;;;;0.50;0.50;;;19.60;99.90;;;;;;4996091;28;20935;-78
2021/07/05 10:56:00;;;;;;;0.87;0.70;;;19.70;99.90;;;;;;4994955;28;20426;-78
2021/07/05 10:58:31;;;;;;;1.27;0.70;;;19.90;99.90;;;;;;4996441;28;20553;-77
2021/07/05 11:01:03;;;;;;;0.60;0.60;;;20.20;99.90;;;;;;4996920;28;20438;-78
2021/07/05 11:03:38;;;;;;;2.13;0.70;;;20.50;99.90;;;;;;4995796;28;20550;-78
2021/07/05 11:06:26;;;;;;;1.27;0.60;;;20.60;99.90;;;;;;4995033;28;20484;-78
2021/07/05 11:08:53;;;;;;;1.80;0.70;;;20.60;99.90;;;;;;4995959;28;20447;-78
2021/07/05 11:11:30;;;;;;;1.53;0.60;;;20.60;99.90;;;;;;4996656;28;20764;-78
2021/07/05 11:14:23;;;;;;;0.90;0.67;;;20.70;99.90;;;;;;4994756;28;20947;-77
2021/07/05 11:17:02;;;;;;;1.57;0.70;;;20.70;99.90;;;;;;4994707;28;20438;-78
2021/07/05 11:19:46;;;;;;;0.80;0.80;;;20.70;99.90;;;;;;4977701;28;20557;-78
2021/07/05 11:22:17;;;;;;;1.20;0.70;;;20.80;99.90;;;;;;4995100;28;20806;-78
2021/07/05 11:25:09;;;;;;;2.40;0.67;;;20.80;99.90;;;;;;4993163;28;20429;-76
2021/07/05 11:27:54;;;;;;;0.90;0.70;;;20.80;99.90;;;;;;4978037;28;20505;-77
2021/07/05 11:30:41;;;;;;;0.73;0.73;;;20.70;99.90;;;;;;4993975;28;20919;-76
2021/07/05 11:33:06;;;;;;;1.23;0.87;;;20.60;99.90;;;;;;4995168;28;20482;-77
2021/07/05 11:35:44;;;;;;;4.00;0.70;;;20.60;99.90;;;;;;4995903;28;20418;-77
2021/07/05 11:38:11;;;;;;;1.27;0.80;;;20.50;99.90;;;;;;4996060;28;20234;-77
2021/07/05 11:40:51;;;;;;;1.57;0.80;;;20.40;99.90;;;;;;4995776;28;20422;-75
2021/07/05 11:43:37;;;;;;;1.10;1.00;;;20.30;99.90;;;;;;4995929;28;20410;-77
2021/07/05 11:46:03;;;;;;;0.80;0.60;;;20.20;99.90;;;;;;4995915;28;20469;-78
2021/07/05 11:48:40;;;;;;;0.70;0.70;;;20.10;99.90;;;;;;4994637;28;20919;-76
2021/07/05 11:51:37;;;;;;;1.90;0.60;;;20.10;99.90;;;;;;4994869;28;20287;-78
2021/07/05 11:54:22;;;;;;;2.00;1.00;;;20.10;99.90;;;;;;4995050;28;20462;-77
2021/07/05 11:56:51;;;;;;;0.90;0.70;;;20.30;99.90;;;;;;4984838;28;20458;-77
2021/07/05 11:59:34;;;;;;;1.13;0.70;;;20.50;99.90;;;;;;4994731;28;20464;-77
2021/07/05 12:02:09;;;;;;;1.33;1.10;;;20.70;99.90;;;;;;4994742;28;20426;-77
2021/07/05 12:04:38;;;;;;;0.80;0.80;;;21.00;99.90;;;;;;4995054;28;20414;-78
2021/07/05 12:07:07;;;;;;;2.73;0.80;;;21.20;99.90;;;;;;4994563;28;20425;-77
2021/07/05 12:09:34;;;;;;;1.00;0.70;;;21.40;99.90;;;;;;4994600;28;20425;-77
2021/07/05 12:12:15;;;;;;;1.70;1.03;;;21.50;99.90;;;;;;4993975;28;20434;-77
2021/07/05 12:14:42;;;;;;;1.20;0.80;;;21.60;99.90;;;;;;4994437;28;20478;-78
2021/07/05 12:17:09;;;;;;;0.80;0.80;;;21.60;99.90;;;;;;4993911;28;20857;-77
2021/07/05 12:19:37;;;;;;;0.80;0.80;;;21.70;99.90;;;;;;4993877;28;20482;-78
2021/07/05 12:22:06;;;;;;;0.97;0.97;;;21.50;99.90;;;;;;4994451;28;20843;-78
2021/07/05 12:24:38;;;;;;;1.10;1.00;;;21.40;99.90;;;;;;4993976;28;20473;-78
2021/07/05 12:27:06;;;;;;;0.80;0.80;;;21.30;99.90;;;;;;4993952;28;20433;-79
2021/07/05 12:29:36;;;;;;;1.00;0.90;;;21.30;99.90;;;;;;4993484;28;20879;-77
2021/07/05 12:32:28;;;;;;;2.10;0.83;;;21.20;99.90;;;;;;4993841;28;20839;-77
2021/07/05 12:35:13;;;;;;;1.70;0.83;;;21.20;99.90;;;;;;4994525;28;20442;-78
2021/07/05 12:37:50;;;;;;;1.33;0.90;;;21.20;99.90;;;;;;4993005;28;20458;-78
2021/07/05 12:40:24;;;;;;;0.90;0.90;;;21.20;99.90;;;;;;4995325;28;20418;-79
2021/07/05 12:42:54;;;;;;;1.03;1.03;;;21.40;99.90;;;;;;4977200;28;20434;-78
2021/07/05 12:45:32;;;;;;;1.53;0.80;;;21.70;99.90;;;;;;4995626;28;20498;-78
2021/07/05 12:48:13;;;;;;;0.70;0.70;;;22.00;99.90;;;;;;4995922;28;20429;-78
2021/07/05 12:50:48;;;;;;;1.00;0.80;;;22.10;99.90;;;;;;4995503;28;20414;-78
2021/07/05 12:53:26;;;;;;;0.80;0.80;;;22.30;99.90;;;;;;4973108;28;20533;-79
2021/07/05 12:56:03;;;;;;;0.80;0.80;;;22.50;99.90;;;;;;4978069;28;20497;-79
2021/07/05 12:58:37;;;;;;;0.70;0.70;;;22.50;99.90;;;;;;4982397;28;20465;-80
2021/07/05 13:01:10;;;;;;;0.87;0.80;;;22.50;99.90;;;;;;4995638;28;20954;-79
2021/07/05 13:03:36;;;;;;;0.80;0.80;;;22.60;99.90;;;;;;4996923;28;20429;-79
2021/07/05 13:06:05;;;;;;;0.73;0.70;;;22.60;99.90;;;;;;4993037;28;20521;-78
2021/07/05 13:08:32;;;;;;;2.30;1.00;;;22.70;99.90;;;;;;4995654;28;20771;-79
2021/07/05 13:11:07;;;;;;;0.70;0.60;;;22.90;99.90;;;;;;4977668;28;20453;-78
2021/07/05 13:13:38;;;;;;;0.60;0.60;;;23.00;99.90;;;;;;4993864;28;20469;-78
2021/07/05 13:16:19;;;;;;;1.53;0.67;;;23.30;99.90;;;;;;4995040;28;20461;-78
2021/07/05 13:18:45;;;;;;;2.73;0.60;;;23.40;99.90;;;;;;4992624;28;20486;-78
2021/07/05 13:21:12;;;;;;;3.40;0.60;;;23.30;99.90;;;;;;4993086;28;20469;-77
2021/07/05 13:23:43;;;;;;;0.70;0.60;;;23.30;99.90;;;;;;4993517;28;20407;-78
2021/07/05 13:26:10;;;;;;;2.20;0.63;;;23.30;99.90;;;;;;4993907;28;20963;-78
2021/07/05 13:28:47;;;;;;;0.90;0.80;;;23.30;99.90;;;;;;4993319;28;20415;-78
2021/07/05 13:31:39;;;;;;;0.90;0.57;;;23.30;99.90;;;;;;4992419;28;20458;-77
2021/07/05 13:34:25;;;;;;;1.53;0.70;;;23.30;99.90;;;;;;4978281;28;20446;-78
2021/07/05 13:36:55;;;;;;;4.43;0.70;;;23.20;99.90;;;;;;4978932;28;20422;-79
2021/07/05 13:39:20;;;;;;;1.40;0.70;;;23.00;99.90;;;;;;4997013;28;20459;-79
2021/07/05 13:41:47;;;;;;;1.73;0.70;;;22.70;99.90;;;;;;4997066;28;20437;-79
2021/07/05 13:44:13;;;;;;;0.57;0.57;;;22.60;99.90;;;;;;4994599;28;20179;-78
2021/07/05 13:46:38;;;;;;;0.83;0.80;;;22.50;99.90;;;;;;4995171;28;20440;-79
2021/07/05 13:49:13;;;;;;;2.43;0.80;;;22.20;99.90;;;;;;4995597;28;20262;-77
2021/07/05 13:51:39;;;;;;;2.90;1.27;;;22.00;99.90;;;;;;4982693;28;20916;-78
2021/07/05 13:54:05;;;;;;;0.80;0.60;;;21.70;99.90;;;;;;4999927;28;20406;-78
2021/07/05 13:56:33;;;;;;;2.80;0.70;;;21.60;99.90;;;;;;4996209;28;20175;-78
2021/07/05 13:59:00;;;;;;;2.17;0.70;;;21.70;99.90;;;;;;4994989;28;20203;-79
2021/07/05 14:01:28;;;;;;;1.47;0.60;;;21.80;99.90;;;;;;4995801;28;20447;-78
2021/07/05 14:03:57;;;;;;;0.60;0.60;;;22.00;99.90;;;;;;4993127;28;20411;-78
2021/07/05 14:06:23;;;;;;;0.50;0.50;;;21.90;99.90;;;;;;4994563;28;20779;-78
2021/07/05 14:08:53;;;;;;;0.50;0.50;;;22.00;99.90;;;;;;4994341;28;20422;-78
2021/07/05 14:11:20;;;;;;;6.83;0.70;;;22.00;99.90;;;;;;4994738;28;20225;-78
2021/07/05 14:13:48;;;;;;;1.13;0.50;;;22.10;99.90;;;;;;4995098;28;20422;-79
2021/07/05 14:16:16;;;;;;;0.60;0.60;;;22.00;99.90;;;;;;4994933;28;20828;-78
2021/07/05 14:18:42;;;;;;;0.50;0.50;;;22.00;99.90;;;;;;4994815;28;20461;-78
2021/07/05 14:21:14;;;;;;;0.60;0.57;;;22.00;99.90;;;;;;4996270;28;20438;-79
2021/07/05 14:23:40;;;;;;;0.60;0.60;;;22.10;99.90;;;;;;4996768;28;20739;-79
2021/07/05 14:26:07;;;;;;;0.70;0.70;;;22.10;99.90;;;;;;4979931;28;20418;-79
2021/07/05 14:28:35;;;;;;;4.87;0.70;;;22.20;99.90;;;;;;4994768;28;20175;-77
2021/07/05 14:31:00;;;;;;;0.60;0.60;;;22.30;99.90;;;;;;4992629;28;20434;-77
2021/07/05 14:33:27;;;;;;;1.07;0.60;;;22.50;99.90;;;;;;4992105;28;20422;-78
2021/07/05 14:35:55;;;;;;;0.60;0.57;;;22.70;99.90;;;;;;4992573;28;20179;-78
2021/07/05 14:38:21;;;;;;;0.50;0.50;;;22.70;99.90;;;;;;4991530;28;20501;-78
2021/07/05 14:40:47;;;;;;;0.60;0.50;;;22.60;99.90;;;;;;4991411;28;20509;-77
2021/07/05 14:43:13;;;;;;;0.57;0.57;;;22.60;99.90;;;;;;4991180;28;20172;-78
2021/07/05 14:45:39;;;;;;;0.90;0.70;;;22.60;99.90;;;;;;4991195;28;20679;-78
2021/07/05 14:48:06;;;;;;;1.00;0.50;;;22.70;99.90;;;;;;4992776;28;20410;-77
2021/07/05 14:50:33;;;;;;;0.90;0.57;;;22.80;99.90;;;;;;4991904;28;20788;-78
2021/07/05 14:53:01;;;;;;;2.20;0.50;;;22.90;99.90;;;;;;4991416;28;20466;-77
2021/07/05 14:55:27;;;;;;;0.70;0.57;;;22.90;99.90;;;;;;4988826;28;20436;-78
2021/07/05 14:57:53;;;;;;;1.17;0.60;;;22.90;99.90;;;;;;4991315;28;20921;-77
2021/07/05 15:00:22;;;;;;;4.40;0.90;;;22.90;99.90;;;;;;4993330;28;20418;-78
2021/07/05 15:02:49;;;;;;;3.53;0.90;;;22.80;99.90;;;;;;4995707;28;20469;-78
2021/07/05 15:05:17;;;;;;;0.60;0.60;;;22.70;99.90;;;;;;4995480;28;20406;-78
2021/07/05 15:07:43;;;;;;;1.47;0.63;;;22.70;99.90;;;;;;4995789;28;20415;-78
2021/07/05 15:10:11;;;;;;;1.67;0.80;;;22.80;99.90;;;;;;4996414;28;20446;-78
2021/07/05 15:12:38;;;;;;;0.70;0.60;;;22.70;99.90;;;;;;4999286;28;20438;-77
2021/07/05 15:15:05;;;;;;;2.20;0.80;;;22.70;99.90;;;;;;5005880;28;20943;-79
2021/07/05 15:17:30;;;;;;;1.87;0.70;;;22.70;99.90;;;;;;4999154;28;20788;-79
2021/07/05 15:19:56;;;;;;;1.00;0.80;;;22.80;99.90;;;;;;5000729;28;20502;-79
2021/07/05 15:22:22;;;;;;;0.97;0.70;;;22.90;99.90;;;;;;4999227;28;20259;-78
2021/07/05 15:24:47;;;;;;;2.43;0.90;;;23.10;99.90;;;;;;4980082;28;20172;-79
2021/07/05 15:27:13;;;;;;;0.80;0.67;;;23.10;99.90;;;;;;4998850;28;20223;-79
2021/07/05 15:29:38;;;;;;;0.70;0.60;;;23.10;99.90;;;;;;4999358;28;20180;-79
2021/07/05 15:32:05;;;;;;;0.70;0.70;;;23.10;99.90;;;;;;4998968;28;20715;-79
2021/07/05 15:34:31;;;;;;;0.80;0.80;;;22.90;99.90;;;;;;4983198;28;20291;-79
2021/07/05 15:36:57;;;;;;;0.87;0.63;;;22.80;99.90;;;;;;4998824;28;20915;-79
2021/07/05 15:39:24;;;;;;;1.20;0.60;;;22.80;99.90;;;;;;4998517;28;20462;-78
2021/07/05 15:41:50;;;;;;;0.80;0.77;;;22.80;99.90;;;;;;4981297;28;20199;-79
2021/07/05 15:44:16;;;;;;;0.97;0.70;;;23.00;99.90;;;;;;4981158;28;20505;-79
2021/07/05 15:46:41;;;;;;;3.07;1.13;;;23.00;99.90;;;;;;4999575;28;20183;-79
2021/07/05 15:49:07;;;;;;;0.90;0.60;;;22.90;99.90;;;;;;4999053;28;20200;-79
2021/07/05 15:51:33;;;;;;;3.20;0.70;;;22.90;99.90;;;;;;4998869;28;20207;-79
2021/07/05 15:53:58;;;;;;;0.70;0.70;;;23.10;99.90;;;;;;4994394;28;20183;-79
2021/07/05 15:56:24;;;;;;;2.70;1.00;;;23.20;99.90;;;;;;4998115;28;20904;-79
2021/07/05 15:58:50;;;;;;;0.60;0.60;;;23.20;99.90;;;;;;4996660;28;20660;-75
2021/07/05 16:01:15;;;;;;;0.70;0.70;;;23.30;99.90;;;;;;4994007;28;20199;-75
2021/07/05 16:03:41;;;;;;;0.70;0.60;;;23.20;99.90;;;;;;4993764;28;20182;-75
2021/07/05 16:06:06;;;;;;;0.67;0.63;;;23.10;99.90;;;;;;4976532;28;20201;-75
2021/07/05 16:08:32;;;;;;;1.30;0.83;;;22.90;99.90;;;;;;4976805;28;20183;-75
2021/07/05 16:10:57;;;;;;;2.10;1.00;;;22.80;99.90;;;;;;4976463;28;20226;-74
2021/07/05 16:13:24;;;;;;;7.27;1.67;;;22.80;99.90;;;;;;4976539;28;20287;-75
2021/07/05 16:15:51;;;;;;;2.30;1.30;;;22.70;99.90;;;;;;4993552;28;20560;-75
2021/07/05 16:18:18;;;;;;;2.60;1.77;;;22.70;99.90;;;;;;4975992;28;20466;-74
2021/07/05 16:20:44;;;;;;;4.73;1.10;;;22.80;99.90;;;;;;4993579;28;20415;-74
2021/07/05 16:23:11;;;;;;;3.07;1.37;;;22.70;99.90;;;;;;4993566;28;20545;-74
2021/07/05 16:25:36;;;;;;;1.27;1.03;;;22.80;99.90;;;;;;4993312;28;20423;-75
2021/07/05 16:28:05;;;;;;;1.20;1.10;;;22.80;99.90;;;;;;4975798;28;20453;-75
2021/07/05 16:30:32;;;;;;;0.80;0.70;;;22.70;99.90;;;;;;4993019;28;20511;-75
2021/07/05 16:32:58;;;;;;;1.00;0.70;;;22.60;99.90;;;;;;4992918;28;20477;-75
2021/07/05 16:35:23;;;;;;;0.73;0.73;;;22.60;99.90;;;;;;4993287;28;20418;-75
2021/07/05 16:37:49;;;;;;;1.00;0.70;;;22.60;99.90;;;;;;4993234;28;20281;-74
2021/07/05 16:40:15;;;;;;;2.20;0.83;;;22.60;99.90;;;;;;4993172;28;20184;-75
2021/07/05 16:42:41;;;;;;;1.53;0.87;;;22.60;99.90;;;;;;4992822;28;20198;-74
2021/07/05 16:45:07;;;;;;;1.13;0.70;;;22.60;99.90;;;;;;4993130;28;20418;-75
2021/07/05 16:47:38;;;;;;;2.40;0.73;;;22.50;99.90;;;;;;4993165;28;20190;-74
2021/07/05 16:50:05;;;;;;;0.70;0.70;;;22.50;99.90;;;;;;4993424;28;20410;-75
2021/07/05 16:52:31;;;;;;;1.43;0.90;;;22.50;99.90;;;;;;4992915;28;20530;-74
2021/07/05 16:54:59;;;;;;;0.83;0.83;;;22.50;99.90;;;;;;4992672;28;20852;-74
2021/07/05 16:57:25;;;;;;;0.90;0.80;;;22.60;99.90;;;;;;4975376;28;20190;-74
2021/07/05 17:00:04;;;;;;;2.33;0.70;;;22.60;99.90;;;;;;4992770;28;20897;-75
2021/07/05 17:02:30;;;;;;;3.23;1.30;;;22.60;99.90;;;;;;4992657;28;20441;-75
2021/07/05 17:04:56;;;;;;;2.53;0.77;;;22.60;99.90;;;;;;4992578;28;20422;-74
2021/07/05 17:07:22;;;;;;;1.17;0.80;;;22.60;99.90;;;;;;4992532;28;20199;-75
2021/07/05 17:09:48;;;;;;;1.87;0.90;;;22.50;99.90;;;;;;4992653;28;20214;-74
2021/07/05 17:12:15;;;;;;;0.70;0.70;;;22.50;99.90;;;;;;4992099;28;20513;-74
2021/07/05 17:14:41;;;;;;;0.80;0.80;;;22.60;99.90;;;;;;4991516;28;20418;-74
2021/07/05 17:17:07;;;;;;;4.17;0.90;;;22.60;99.90;;;;;;4988938;28;20923;-75
2021/07/05 17:19:32;;;;;;;0.90;0.90;;;22.70;99.90;;;;;;4992145;28;20469;-75
2021/07/05 17:21:58;;;;;;;2.93;0.80;;;22.60;99.90;;;;;;4992230;28;20199;-75
2021/07/05 17:24:24;;;;;;;0.60;0.60;;;22.60;99.90;;;;;;4991662;28;20183;-75
2021/07/05 17:26:50;;;;;;;0.73;0.73;;;22.60;99.90;;;;;;4992126;28;20179;-75
2021/07/05 17:29:15;;;;;;;2.10;0.80;;;22.50;99.90;;;;;;4992019;28;20907;-75